Time;durP1;ratioP1;P1;durP2;ratioP2;P2;SDS_P1;SDS_P2;PMS_P1;PMS_P2;Temp;Humidity;BMP_temperature;BMP_pressure;BME280_temperature;BME280_humidity;BME280_pressure;Samples;Min_cycle;Max_cycle;Signal;HPM_P1;HPM_P2
2022/09/10 00:00:44;;;;;;;15.77;10.82;;;14.90;99.90;;;;;;5112871;28;20051;-72
2022/09/10 00:03:11;;;;;;;15.48;9.50;;;15.00;99.90;;;;;;5095536;28;20059;-71
2022/09/10 00:05:40;;;;;;;13.40;9.23;;;15.00;99.90;;;;;;5113692;28;20093;-70
2022/09/10 00:08:07;;;;;;;13.13;9.35;;;15.00;99.90;;;;;;5094591;28;20559;-72
2022/09/10 00:10:38;;;;;;;16.67;9.63;;;15.00;99.90;;;;;;5095325;28;20104;-72
2022/09/10 00:13:05;;;;;;;14.55;9.85;;;15.10;99.90;;;;;;5095448;28;20135;-72
2022/09/10 00:15:38;;;;;;;18.67;11.23;;;15.00;99.90;;;;;;5094449;28;20048;-71
2022/09/10 00:18:05;;;;;;;15.15;10.27;;;15.10;99.90;;;;;;5113441;28;20119;-71
2022/09/10 00:20:32;;;;;;;14.65;10.80;;;15.00;99.90;;;;;;5095557;28;20052;-71
2022/09/10 00:22:59;;;;;;;14.18;9.73;;;15.00;99.90;;;;;;5112388;28;20491;-72
2022/09/10 00:25:31;;;;;;;14.38;10.30;;;15.10;99.90;;;;;;5095323;28;20134;-72
2022/09/10 00:27:59;;;;;;;13.68;9.80;;;15.10;99.90;;;;;;5113131;28;20141;-72
2022/09/10 00:30:27;;;;;;;11.63;9.45;;;15.10;99.90;;;;;;5094242;28;20135;-73
2022/09/10 00:32:55;;;;;;;16.88;10.73;;;15.10;99.90;;;;;;5112980;28;20098;-73
2022/09/10 00:35:22;;;;;;;14.98;10.13;;;15.10;99.90;;;;;;5112675;28;20051;-72
2022/09/10 00:37:49;;;;;;;14.63;9.73;;;15.10;99.90;;;;;;5113159;28;20384;-73
2022/09/10 00:40:16;;;;;;;13.85;9.85;;;15.20;99.90;;;;;;5095061;28;20055;-72
2022/09/10 00:42:43;;;;;;;14.30;9.90;;;15.10;99.90;;;;;;5112267;28;20087;-72
2022/09/10 00:45:17;;;;;;;13.07;9.48;;;15.10;99.90;;;;;;5094995;28;20051;-72
2022/09/10 00:47:46;;;;;;;13.20;10.10;;;15.20;99.90;;;;;;5113076;28;20051;-72
2022/09/10 00:50:20;;;;;;;13.45;9.70;;;15.20;99.90;;;;;;5093764;28;20090;-72
2022/09/10 00:52:48;;;;;;;16.10;10.73;;;15.20;99.90;;;;;;5094782;28;20051;-73
2022/09/10 00:55:16;;;;;;;12.27;9.45;;;15.20;99.90;;;;;;5113181;28;20052;-73
2022/09/10 00:57:46;;;;;;;11.88;9.23;;;15.20;99.90;;;;;;5093964;28;20044;-72
2022/09/10 01:00:15;;;;;;;13.87;9.87;;;15.10;99.90;;;;;;5095248;28;20047;-72
2022/09/10 01:02:42;;;;;;;12.82;9.93;;;15.20;99.90;;;;;;5094805;28;20105;-72
2022/09/10 01:05:10;;;;;;;16.65;10.43;;;15.10;99.90;;;;;;5094315;28;20058;-71
2022/09/10 01:07:39;;;;;;;14.27;10.20;;;15.20;99.90;;;;;;5094509;28;20047;-72
2022/09/10 01:10:11;;;;;;;14.30;10.07;;;15.20;99.90;;;;;;5113001;28;20126;-72
2022/09/10 01:12:59;;;;;;;13.90;9.90;;;15.20;99.90;;;;;;5093990;28;20483;-71
2022/09/10 01:15:34;;;;;;;12.23;9.55;;;15.20;99.90;;;;;;5094847;28;20044;-71
2022/09/10 01:18:13;;;;;;;16.15;10.75;;;15.20;99.90;;;;;;5093920;28;20047;-71
2022/09/10 01:21:00;;;;;;;13.93;10.57;;;15.20;99.90;;;;;;5113134;28;20509;-71
2022/09/10 01:23:59;;;;;;;12.95;9.75;;;15.20;99.90;;;;;;5112917;28;20072;-71
2022/09/10 01:26:48;;;;;;;15.30;10.60;;;15.20;99.90;;;;;;5093771;28;20047;-71
2022/09/10 01:29:24;;;;;;;16.70;10.95;;;15.20;99.90;;;;;;5114740;28;20050;-71
2022/09/10 01:31:55;;;;;;;16.35;11.38;;;15.20;99.90;;;;;;5115482;28;20551;-72
2022/09/10 01:34:29;;;;;;;15.30;11.23;;;15.20;99.90;;;;;;5116425;28;20048;-72
2022/09/10 01:37:02;;;;;;;13.90;10.82;;;15.30;99.90;;;;;;5116291;28;20054;-72
2022/09/10 01:39:30;;;;;;;14.68;11.57;;;15.30;99.90;;;;;;5115584;28;20548;-72
2022/09/10 01:41:57;;;;;;;15.65;11.15;;;15.30;99.90;;;;;;5098497;28;20059;-72
2022/09/10 01:44:48;;;;;;;16.38;11.05;;;15.30;99.90;;;;;;5116341;28;20051;-72
2022/09/10 01:47:19;;;;;;;;;;;15.30;99.90;;;;;;5101429;28;20048;-69
2022/09/10 01:50:03;;;;;;;18.20;12.02;;;15.20;99.90;;;;;;5109749;28;19965;-69
2022/09/10 01:52:42;;;;;;;17.42;12.00;;;15.20;99.90;;;;;;5109801;28;20054;-71
2022/09/10 01:55:21;;;;;;;21.50;11.55;;;15.20;99.90;;;;;;5129108;28;20398;-71
2022/09/10 01:57:56;;;;;;;16.67;12.00;;;15.20;99.90;;;;;;5111465;28;20051;-70
2022/09/10 02:00:25;;;;;;;20.02;12.43;;;15.30;99.90;;;;;;5098574;28;20043;-72
2022/09/10 02:02:58;;;;;;;19.38;13.25;;;15.30;99.90;;;;;;5116161;28;20047;-71
2022/09/10 02:05:28;;;;;;;18.00;13.27;;;15.30;99.90;;;;;;5097903;28;20051;-72
2022/09/10 02:08:00;;;;;;;23.10;14.05;;;15.30;99.90;;;;;;5096577;28;20140;-71
2022/09/10 02:10:28;;;;;;;19.45;12.82;;;15.30;99.90;;;;;;5097773;28;20261;-71
2022/09/10 02:12:55;;;;;;;21.60;14.63;;;15.30;99.90;;;;;;5097518;28;20548;-71
2022/09/10 02:15:27;;;;;;;22.23;14.38;;;15.30;99.90;;;;;;5096800;28;20094;-71
2022/09/10 02:17:55;;;;;;;22.95;16.58;;;15.30;99.90;;;;;;5097135;28;20096;-71
2022/09/10 02:20:22;;;;;;;22.80;14.98;;;15.30;99.90;;;;;;5115421;28;20054;-71
2022/09/10 02:22:55;;;;;;;21.88;16.13;;;15.30;99.90;;;;;;5114656;28;20183;-72
2022/09/10 02:25:23;;;;;;;25.13;16.10;;;15.30;99.90;;;;;;5115613;28;20083;-71
2022/09/10 02:27:50;;;;;;;26.98;17.23;;;15.30;99.90;;;;;;5114440;28;20048;-71
2022/09/10 02:30:19;;;;;;;23.88;16.17;;;15.30;99.90;;;;;;5097239;28;20048;-71
2022/09/10 02:32:47;;;;;;;24.38;17.40;;;15.30;99.90;;;;;;5115298;28;20063;-70
2022/09/10 02:35:14;;;;;;;26.42;17.63;;;15.30;99.90;;;;;;5096113;28;20043;-71
2022/09/10 02:37:42;;;;;;;24.05;17.08;;;15.30;99.90;;;;;;5096721;28;20040;-71
2022/09/10 02:40:10;;;;;;;24.60;18.70;;;15.30;99.90;;;;;;5095439;28;20580;-70
2022/09/10 02:42:37;;;;;;;27.10;18.17;;;15.30;99.90;;;;;;5114051;28;20058;-72
2022/09/10 02:45:04;;;;;;;26.17;18.17;;;15.20;99.90;;;;;;5096993;28;20142;-73
2022/09/10 02:47:31;;;;;;;26.27;18.55;;;15.20;99.90;;;;;;5096481;28;20048;-73
2022/09/10 02:50:00;;;;;;;27.63;18.92;;;15.20;99.90;;;;;;5096152;28;20058;-74
2022/09/10 02:52:28;;;;;;;27.88;18.48;;;15.30;99.90;;;;;;5096912;28;20315;-73
2022/09/10 02:54:54;;;;;;;25.17;18.10;;;15.30;99.90;;;;;;5114963;28;20131;-74
2022/09/10 02:57:21;;;;;;;24.52;18.27;;;15.30;99.90;;;;;;5095676;28;20051;-72
2022/09/10 02:59:48;;;;;;;25.83;18.10;;;15.30;99.90;;;;;;5096686;28;20495;-73
2022/09/10 03:02:15;;;;;;;26.05;18.40;;;15.20;99.90;;;;;;5113738;28;20051;-73
2022/09/10 03:04:42;;;;;;;26.80;19.55;;;15.30;99.90;;;;;;5095080;28;20047;-70
2022/09/10 03:07:10;;;;;;;26.98;19.38;;;15.30;99.90;;;;;;5096290;28;20532;-72
2022/09/10 03:09:39;;;;;;;26.30;19.50;;;15.30;99.90;;;;;;5096328;28;20183;-72
2022/09/10 03:12:07;;;;;;;23.13;18.13;;;15.30;99.90;;;;;;5095484;28;20043;-72
2022/09/10 03:14:34;;;;;;;32.15;19.88;;;15.30;99.90;;;;;;5096387;28;20055;-71
2022/09/10 03:17:02;;;;;;;25.73;17.85;;;15.30;99.90;;;;;;5113433;28;20047;-71
2022/09/10 03:19:30;;;;;;;30.95;22.45;;;15.30;99.90;;;;;;5096230;28;20056;-71
2022/09/10 03:21:57;;;;;;;25.83;19.10;;;15.30;99.90;;;;;;5114252;28;20491;-71
2022/09/10 03:24:25;;;;;;;27.55;20.15;;;15.30;99.90;;;;;;5113567;28;20150;-70
2022/09/10 03:26:52;;;;;;;25.27;19.23;;;15.30;99.90;;;;;;5096169;28;20380;-71
2022/09/10 03:29:19;;;;;;;30.27;20.63;;;15.20;99.90;;;;;;5095692;28;20057;-72
2022/09/10 03:31:46;;;;;;;29.08;19.88;;;15.30;99.90;;;;;;5095113;28;20055;-70
2022/09/10 03:34:14;;;;;;;29.45;20.85;;;15.20;99.90;;;;;;5095805;28;20062;-70
2022/09/10 03:36:41;;;;;;;31.65;21.48;;;15.30;99.90;;;;;;5114126;28;20047;-71
2022/09/10 03:39:07;;;;;;;28.05;21.70;;;15.30;99.90;;;;;;5095136;28;20051;-71
2022/09/10 03:41:36;;;;;;;28.75;20.98;;;15.30;99.90;;;;;;5114098;28;20044;-71
2022/09/10 03:44:04;;;;;;;28.15;20.70;;;15.20;99.90;;;;;;5113864;28;20083;-70
2022/09/10 03:46:31;;;;;;;35.13;21.98;;;15.20;99.90;;;;;;5094856;28;20047;-70
2022/09/10 03:48:58;;;;;;;29.63;20.38;;;15.30;99.90;;;;;;5096090;28;20067;-71
2022/09/10 03:51:26;;;;;;;29.35;20.38;;;15.20;99.90;;;;;;5113499;28;20047;-71
2022/09/10 03:53:53;;;;;;;32.08;20.73;;;15.20;99.90;;;;;;5094962;28;20056;-71
2022/09/10 03:56:20;;;;;;;33.08;22.25;;;15.30;99.90;;;;;;5095579;28;20055;-71
2022/09/10 03:58:49;;;;;;;33.90;21.83;;;15.20;99.90;;;;;;5095726;28;20048;-71
2022/09/10 04:01:16;;;;;;;31.80;19.67;;;15.30;99.90;;;;;;5094743;28;20058;-71
2022/09/10 04:03:43;;;;;;;28.90;19.75;;;15.30;99.90;;;;;;5113629;28;20086;-71
2022/09/10 04:06:10;;;;;;;36.25;22.73;;;15.30;99.90;;;;;;5094668;28;20055;-71
2022/09/10 04:08:37;;;;;;;29.02;21.50;;;15.20;99.90;;;;;;5113499;28;20127;-71
2022/09/10 04:11:05;;;;;;;33.83;21.45;;;15.30;99.90;;;;;;5095435;28;20487;-70
2022/09/10 04:13:32;;;;;;;30.80;20.83;;;15.20;99.90;;;;;;5094793;28;20052;-72
2022/09/10 04:16:01;;;;;;;28.60;21.15;;;15.20;99.90;;;;;;5095396;28;20394;-72
2022/09/10 04:18:28;;;;;;;32.30;20.92;;;15.20;99.90;;;;;;5095380;28;20051;-67
2022/09/10 04:20:55;;;;;;;29.60;21.13;;;15.20;99.90;;;;;;5094555;28;20514;-66
2022/09/10 04:23:22;;;;;;;29.08;20.45;;;15.20;99.90;;;;;;5095453;28;20055;-71
2022/09/10 04:25:49;;;;;;;30.33;21.23;;;15.20;99.90;;;;;;5113346;28;20047;-72
2022/09/10 04:28:16;;;;;;;31.00;21.58;;;15.20;99.90;;;;;;5112500;28;20047;-72
2022/09/10 04:30:44;;;;;;;33.72;21.02;;;15.20;99.90;;;;;;5095313;28;20120;-74
2022/09/10 04:33:12;;;;;;;33.88;21.33;;;15.20;99.90;;;;;;5113314;28;20090;-72
2022/09/10 04:35:39;;;;;;;32.83;22.25;;;15.20;99.90;;;;;;5112733;28;20058;-72
2022/09/10 04:38:06;;;;;;;42.83;22.73;;;15.20;99.90;;;;;;5095220;28;20036;-72
2022/09/10 04:40:34;;;;;;;34.38;22.05;;;15.20;99.90;;;;;;5095235;28;20051;-72
2022/09/10 04:43:01;;;;;;;35.95;23.15;;;15.20;99.90;;;;;;5094570;28;20063;-74
2022/09/10 04:45:28;;;;;;;32.45;22.40;;;15.20;99.90;;;;;;5113292;28;20052;-72
2022/09/10 04:47:55;;;;;;;36.33;21.98;;;15.20;99.90;;;;;;5094930;28;20047;-71
2022/09/10 04:50:23;;;;;;;35.70;22.58;;;15.20;99.90;;;;;;5094240;28;20048;-71
2022/09/10 04:52:50;;;;;;;38.05;22.98;;;15.20;99.90;;;;;;5095175;28;20047;-72
2022/09/10 04:55:17;;;;;;;23.73;16.42;;;15.20;99.90;;;;;;5112432;28;20047;-72
2022/09/10 04:57:44;;;;;;;33.15;20.92;;;15.20;99.90;;;;;;5094252;28;20055;-72
2022/09/10 05:00:12;;;;;;;26.00;15.88;;;15.30;99.90;;;;;;5111214;28;20567;-73
2022/09/10 05:02:39;;;;;;;29.25;19.67;;;15.60;99.90;;;;;;5110610;28;20051;-73
2022/09/10 05:05:07;;;;;;;30.70;21.65;;;15.80;99.90;;;;;;5096547;28;20047;-71
2022/09/10 05:07:35;;;;;;;28.80;19.88;;;15.80;99.90;;;;;;5095853;27;20096;-71
2022/09/10 05:10:02;;;;;;;28.38;19.33;;;15.70;99.90;;;;;;5096001;28;20047;-74
2022/09/10 05:12:29;;;;;;;30.23;18.30;;;15.90;99.90;;;;;;5114689;28;20495;-72
2022/09/10 05:14:56;;;;;;;30.85;18.48;;;15.80;99.90;;;;;;5115812;28;20083;-72
2022/09/10 05:17:23;;;;;;;29.25;18.13;;;16.10;99.90;;;;;;5113724;28;20050;-73
2022/09/10 05:19:50;;;;;;;26.55;19.17;;;16.20;99.90;;;;;;5114540;28;20043;-72
2022/09/10 05:22:17;;;;;;;23.23;15.88;;;16.20;99.90;;;;;;5096895;28;20047;-72
2022/09/10 05:24:45;;;;;;;26.17;18.17;;;16.30;99.90;;;;;;5114494;28;20513;-72
2022/09/10 05:27:12;;;;;;;20.83;15.43;;;16.40;99.90;;;;;;5096495;28;20052;-72
2022/09/10 05:29:39;;;;;;;25.55;16.05;;;16.30;99.90;;;;;;5117530;27;20093;-72
2022/09/10 05:32:08;;;;;;;22.55;15.07;;;16.20;99.90;;;;;;5096615;28;20048;-72
2022/09/10 05:34:35;;;;;;;26.85;17.20;;;16.30;99.90;;;;;;5097595;28;20100;-73
2022/09/10 05:37:02;;;;;;;22.85;16.83;;;16.40;99.90;;;;;;5097129;28;20059;-73
2022/09/10 05:39:28;;;;;;;21.35;15.38;;;16.30;99.90;;;;;;5114455;28;20051;-73
2022/09/10 05:41:57;;;;;;;21.65;16.60;;;16.30;99.90;;;;;;5116262;28;20044;-72
2022/09/10 05:44:24;;;;;;;20.67;13.38;;;16.30;99.90;;;;;;5097705;27;20063;-72
2022/09/10 05:46:50;;;;;;;23.60;16.33;;;16.30;99.90;;;;;;5106064;27;20108;-72
2022/09/10 05:49:17;;;;;;;20.33;15.80;;;16.30;99.90;;;;;;5097715;28;20054;-71
2022/09/10 05:51:44;;;;;;;20.52;15.10;;;16.40;99.90;;;;;;5103542;28;20058;-72
2022/09/10 05:54:11;;;;;;;21.40;16.70;;;16.50;99.90;;;;;;5100615;28;20498;-73
2022/09/10 05:56:38;;;;;;;22.25;16.13;;;16.40;99.90;;;;;;5116798;27;20116;-73
2022/09/10 05:59:07;;;;;;;20.55;15.88;;;16.40;99.90;;;;;;5119497;27;20047;-73
2022/09/10 06:01:34;;;;;;;20.58;14.13;;;16.50;99.90;;;;;;5113728;28;20499;-73
2022/09/10 06:04:01;;;;;;;24.75;17.17;;;16.50;99.90;;;;;;5096673;28;20048;-75
2022/09/10 06:06:28;;;;;;;23.73;15.85;;;16.50;99.90;;;;;;5112736;28;20047;-73
2022/09/10 06:08:55;;;;;;;22.98;15.77;;;16.40;99.90;;;;;;5097497;28;20047;-73
2022/09/10 06:11:23;;;;;;;22.63;15.77;;;16.30;99.90;;;;;;5113740;28;20480;-73
2022/09/10 06:13:51;;;;;;;24.33;16.25;;;16.30;99.90;;;;;;5114324;27;20099;-73
2022/09/10 06:16:19;;;;;;;25.27;16.67;;;16.30;99.90;;;;;;5095397;27;20463;-75
2022/09/10 06:18:46;;;;;;;28.95;17.80;;;16.30;99.90;;;;;;5099194;28;20403;-73
2022/09/10 06:21:14;;;;;;;22.65;16.23;;;16.30;99.90;;;;;;5099270;28;20051;-75
2022/09/10 06:23:41;;;;;;;21.70;15.85;;;16.30;99.90;;;;;;5121909;27;20067;-73
2022/09/10 06:26:11;;;;;;;23.42;17.13;;;16.20;99.90;;;;;;5118621;27;20044;-73
2022/09/10 06:28:38;;;;;;;24.60;17.20;;;16.30;99.90;;;;;;5097651;28;20043;-72
2022/09/10 06:31:05;;;;;;;26.95;16.92;;;16.30;99.90;;;;;;5095505;28;20044;-74
2022/09/10 06:33:34;;;;;;;23.30;15.95;;;16.20;99.90;;;;;;5096450;28;20060;-73
2022/09/10 06:36:02;;;;;;;20.77;16.05;;;16.20;99.90;;;;;;5093617;28;20105;-72
2022/09/10 06:38:32;;;;;;;19.92;15.52;;;16.20;99.90;;;;;;5098215;27;20040;-72
2022/09/10 06:41:02;;;;;;;18.95;15.45;;;16.20;99.90;;;;;;5095124;28;20402;-72
2022/09/10 06:43:35;;;;;;;22.55;15.13;;;16.30;99.90;;;;;;5096304;28;20122;-72
2022/09/10 06:46:04;;;;;;;21.85;15.30;;;16.30;99.90;;;;;;5113491;28;20126;-73
2022/09/10 06:48:31;;;;;;;23.60;15.90;;;16.40;99.90;;;;;;5097413;28;20542;-73
2022/09/10 06:51:00;;;;;;;22.00;15.00;;;16.30;99.90;;;;;;5094648;28;20054;-72
2022/09/10 06:53:29;;;;;;;24.20;16.10;;;16.40;99.90;;;;;;5114397;27;20052;-75
2022/09/10 06:55:56;;;;;;;24.73;15.13;;;16.40;99.90;;;;;;5097341;28;20108;-74
2022/09/10 06:58:23;;;;;;;24.30;17.15;;;16.30;99.90;;;;;;5095868;28;20044;-73
2022/09/10 07:00:51;;;;;;;24.75;15.43;;;16.40;99.90;;;;;;5095677;28;20075;-72
2022/09/10 07:03:20;;;;;;;25.00;16.25;;;16.30;99.90;;;;;;5093689;28;20039;-73
2022/09/10 07:05:47;;;;;;;20.92;15.95;;;16.40;99.90;;;;;;5095910;28;20039;-73
2022/09/10 07:08:16;;;;;;;19.65;15.10;;;16.40;99.90;;;;;;5113170;28;20505;-73
2022/09/10 07:10:45;;;;;;;22.10;15.88;;;16.40;99.90;;;;;;5104682;27;20561;-73
2022/09/10 07:13:12;;;;;;;26.55;16.45;;;16.50;99.90;;;;;;5095542;28;20078;-74
2022/09/10 07:15:45;;;;;;;20.63;15.38;;;16.60;99.90;;;;;;5112778;28;20059;-73
2022/09/10 07:18:13;;;;;;;23.70;15.93;;;16.60;99.90;;;;;;5115214;27;20134;-74
2022/09/10 07:20:40;;;;;;;23.52;15.65;;;16.60;99.90;;;;;;5094673;27;20138;-75
2022/09/10 07:23:07;;;;;;;21.58;16.17;;;16.70;99.90;;;;;;5112093;28;20108;-74
2022/09/10 07:25:35;;;;;;;22.90;15.95;;;16.70;99.90;;;;;;5112823;28;20051;-74
2022/09/10 07:28:02;;;;;;;20.48;15.90;;;16.60;99.90;;;;;;5093830;28;20039;-74
2022/09/10 07:30:29;;;;;;;25.80;14.63;;;16.70;99.90;;;;;;5099647;28;20059;-76
2022/09/10 07:32:56;;;;;;;22.38;14.95;;;16.80;99.90;;;;;;5112075;28;20044;-75
2022/09/10 07:35:24;;;;;;;22.10;15.68;;;16.70;99.90;;;;;;5112974;28;20100;-75
2022/09/10 07:37:50;;;;;;;21.50;15.38;;;16.80;99.90;;;;;;5093207;28;20906;-75
2022/09/10 07:40:17;;;;;;;25.27;15.77;;;16.80;99.90;;;;;;5093672;28;20044;-74
2022/09/10 07:42:45;;;;;;;32.03;16.20;;;16.80;99.90;;;;;;5093942;28;20057;-74
2022/09/10 07:45:15;;;;;;;23.00;14.93;;;16.90;99.90;;;;;;5094364;28;20387;-78
2022/09/10 07:47:43;;;;;;;23.70;14.87;;;16.90;99.90;;;;;;5093371;28;20047;-75
2022/09/10 07:50:10;;;;;;;20.02;15.35;;;16.90;99.90;;;;;;5111944;28;20346;-74
2022/09/10 07:52:37;;;;;;;19.67;15.02;;;16.90;99.90;;;;;;5110872;27;20047;-73
2022/09/10 07:55:05;;;;;;;19.88;13.90;;;16.90;99.90;;;;;;5106449;27;20487;-74
2022/09/10 07:57:36;;;;;;;24.30;14.88;;;16.90;99.90;;;;;;5093472;28;20052;-75
2022/09/10 08:00:10;;;;;;;18.85;12.88;;;16.90;99.90;;;;;;5093179;28;20075;-74
2022/09/10 08:02:37;;;;;;;24.63;14.75;;;17.00;99.90;;;;;;5095270;28;20044;-74
2022/09/10 08:05:05;;;;;;;23.02;14.13;;;17.00;99.90;;;;;;5111742;28;20402;-74
2022/09/10 08:07:32;;;;;;;23.27;15.35;;;17.00;99.90;;;;;;5103977;28;20051;-74
2022/09/10 08:09:59;;;;;;;21.08;14.55;;;17.00;99.90;;;;;;5113606;27;20044;-74
2022/09/10 08:12:26;;;;;;;23.23;14.48;;;17.00;99.90;;;;;;5109888;27;20051;-74
2022/09/10 08:14:53;;;;;;;22.45;14.95;;;17.00;99.90;;;;;;5094481;28;20039;-75
2022/09/10 08:17:21;;;;;;;21.67;15.75;;;17.00;99.90;;;;;;5092788;28;20050;-74
2022/09/10 08:19:49;;;;;;;29.63;15.68;;;17.00;99.90;;;;;;5111014;28;20329;-75
2022/09/10 08:22:17;;;;;;;23.77;15.77;;;17.10;99.90;;;;;;5102644;28;20138;-75
2022/09/10 08:24:45;;;;;;;25.45;15.20;;;17.10;99.90;;;;;;5094809;28;20514;-74
2022/09/10 08:27:12;;;;;;;20.38;14.73;;;17.00;99.90;;;;;;5094213;28;20125;-76
2022/09/10 08:29:39;;;;;;;21.05;15.40;;;17.10;99.90;;;;;;5095096;28;20116;-74
2022/09/10 08:32:06;;;;;;;22.25;15.27;;;17.10;99.90;;;;;;5113252;28;20133;-74
2022/09/10 08:34:35;;;;;;;25.73;15.90;;;17.20;99.90;;;;;;5112917;28;20052;-74
2022/09/10 08:37:02;;;;;;;24.02;15.27;;;17.20;99.90;;;;;;5095217;28;20052;-74
2022/09/10 08:39:30;;;;;;;23.90;16.40;;;17.20;99.90;;;;;;5115568;28;20048;-76
2022/09/10 08:42:00;;;;;;;25.77;15.40;;;17.20;99.90;;;;;;5116599;28;20059;-75
2022/09/10 08:44:33;;;;;;;;;;;17.20;99.90;;;;;;5100125;28;20051;-74
2022/09/10 08:47:07;;;;;;;27.42;14.38;;;17.20;99.90;;;;;;5117436;28;19923;-75
2022/09/10 08:49:41;;;;;;;21.45;14.27;;;17.30;99.90;;;;;;5098365;28;20503;-75
2022/09/10 08:52:18;;;;;;;24.30;13.98;;;17.30;99.90;;;;;;5117242;28;20051;-74
2022/09/10 08:54:54;;;;;;;22.30;14.88;;;17.40;99.90;;;;;;5098283;28;20043;-74
2022/09/10 08:57:25;;;;;;;22.95;14.40;;;17.40;99.90;;;;;;5099378;28;20051;-75
2022/09/10 08:59:56;;;;;;;20.58;13.82;;;17.50;99.90;;;;;;5117392;28;20054;-76
2022/09/10 09:02:30;;;;;;;23.23;14.77;;;17.60;99.90;;;;;;5098307;28;20391;-75
2022/09/10 09:05:05;;;;;;;23.10;14.38;;;17.70;99.90;;;;;;5117106;28;20047;-75
2022/09/10 09:07:37;;;;;;;21.90;14.50;;;17.70;99.90;;;;;;5099602;28;20057;-75
2022/09/10 09:10:14;;;;;;;23.33;14.10;;;17.70;99.90;;;;;;5099130;28;20059;-75
2022/09/10 09:12:53;;;;;;;24.70;15.40;;;17.70;99.90;;;;;;5099660;28;20048;-75
2022/09/10 09:15:25;;;;;;;29.88;15.60;;;17.70;99.90;;;;;;5117920;28;20134;-74
2022/09/10 09:18:09;;;;;;;21.20;14.95;;;17.80;99.90;;;;;;5117370;28;20048;-75
2022/09/10 09:20:45;;;;;;;23.17;14.07;;;17.80;99.90;;;;;;5117181;28;20050;-74
2022/09/10 09:23:21;;;;;;;19.52;13.27;;;17.80;99.90;;;;;;5098276;28;20062;-74
2022/09/10 09:25:49;;;;;;;19.73;13.55;;;17.90;99.90;;;;;;5099482;28;20055;-75
2022/09/10 09:28:27;;;;;;;19.90;13.77;;;17.90;99.90;;;;;;5117187;28;20052;-75
2022/09/10 09:30:55;;;;;;;19.25;13.10;;;17.90;99.90;;;;;;5097901;28;20566;-74
2022/09/10 09:33:23;;;;;;;20.65;14.15;;;17.90;99.90;;;;;;5098033;28;20117;-74
2022/09/10 09:35:56;;;;;;;18.85;12.90;;;17.90;99.90;;;;;;5116799;28;20105;-74
2022/09/10 09:38:25;;;;;;;18.42;12.13;;;18.00;99.90;;;;;;5097502;28;20112;-75
2022/09/10 09:40:56;;;;;;;20.00;12.23;;;18.10;99.90;;;;;;5116583;27;20564;-76
2022/09/10 09:43:34;;;;;;;20.50;12.38;;;18.10;99.90;;;;;;5112670;28;20472;-77
2022/09/10 09:46:02;;;;;;;19.65;13.23;;;18.20;99.90;;;;;;5114324;28;20118;-77
2022/09/10 09:48:37;;;;;;;20.58;13.70;;;18.20;99.90;;;;;;5129219;27;20108;-77
2022/09/10 09:51:10;;;;;;;17.85;12.27;;;18.20;99.90;;;;;;5119468;27;20056;-77
2022/09/10 09:53:39;;;;;;;20.38;12.75;;;18.30;99.90;;;;;;5114760;28;20399;-77
2022/09/10 09:56:14;;;;;;;21.42;13.45;;;18.30;99.90;;;;;;5110661;28;20079;-76
2022/09/10 09:58:47;;;;;;;21.08;13.25;;;18.40;99.90;;;;;;5122595;27;20079;-76
2022/09/10 10:01:20;;;;;;;21.92;13.50;;;18.40;99.90;;;;;;5096319;27;20903;-77
2022/09/10 10:03:57;;;;;;;19.08;13.23;;;18.40;99.90;;;;;;5127335;27;20074;-76
2022/09/10 10:06:28;;;;;;;19.00;12.30;;;18.50;99.90;;;;;;5113626;27;20509;-74
2022/09/10 10:09:02;;;;;;;18.92;12.75;;;18.50;99.90;;;;;;5115534;28;20546;-76
2022/09/10 10:11:51;;;;;;;19.58;13.50;;;18.50;99.90;;;;;;5097223;28;20487;-77
2022/09/10 10:14:38;;;;;;;18.80;12.10;;;18.70;99.90;;;;;;5115165;28;20131;-75
2022/09/10 10:17:37;;;;;;;20.40;12.77;;;18.80;99.90;;;;;;5115312;28;20452;-75
2022/09/10 10:20:10;;;;;;;19.20;12.45;;;18.90;99.90;;;;;;5114860;28;20043;-73
2022/09/10 10:22:39;;;;;;;17.98;11.18;;;19.00;99.90;;;;;;5097516;28;20491;-78
2022/09/10 10:25:22;;;;;;;17.73;11.70;;;19.20;99.90;;;;;;5115194;28;20108;-75
2022/09/10 10:27:50;;;;;;;17.10;12.55;;;19.20;99.90;;;;;;5100172;28;20036;-78
2022/09/10 10:30:22;;;;;;;15.60;11.65;;;19.30;99.90;;;;;;5114928;28;20043;-75
2022/09/10 10:32:53;;;;;;;17.08;12.02;;;19.30;99.90;;;;;;5103067;27;20055;-74
2022/09/10 10:35:40;;;;;;;18.42;10.63;;;19.30;99.90;;;;;;5099073;28;20059;-75
2022/09/10 10:38:27;;;;;;;16.83;10.57;;;19.30;99.90;;;;;;5115067;28;20411;-76
2022/09/10 10:41:21;;;;;;;15.23;11.38;;;19.30;99.90;;;;;;5088195;28;20335;-74
2022/09/10 10:43:58;;;;;;;14.75;10.00;;;19.40;99.90;;;;;;5105968;28;20047;-74
2022/09/10 10:46:29;;;;;;;15.25;10.13;;;19.40;99.90;;;;;;5113896;28;20100;-75
2022/09/10 10:49:15;;;;;;;16.42;11.20;;;19.30;99.90;;;;;;5110893;27;20405;-75
2022/09/10 10:51:51;;;;;;;16.65;11.00;;;19.40;99.90;;;;;;5107974;28;20085;-75
2022/09/10 10:54:46;;;;;;;15.98;10.77;;;19.40;99.90;;;;;;5095500;28;20483;-75
2022/09/10 10:57:27;;;;;;;18.95;11.85;;;19.30;99.90;;;;;;5114459;28;20055;-75
2022/09/10 11:00:00;;;;;;;17.17;11.25;;;19.30;99.90;;;;;;5114900;27;20116;-75
2022/09/10 11:02:38;;;;;;;15.75;10.48;;;19.30;99.90;;;;;;5124219;27;20047;-75
2022/09/10 11:05:18;;;;;;;16.15;10.75;;;19.30;99.90;;;;;;5115657;27;20375;-75
2022/09/10 11:07:46;;;;;;;15.00;10.18;;;19.30;99.90;;;;;;5113914;28;20513;-76
2022/09/10 11:10:20;;;;;;;19.73;12.00;;;19.30;99.90;;;;;;5111998;28;20052;-76
2022/09/10 11:12:52;;;;;;;14.70;10.35;;;19.30;99.90;;;;;;5102571;27;20055;-76
2022/09/10 11:15:29;;;;;;;15.57;10.65;;;19.30;99.90;;;;;;5103959;28;20070;-75
2022/09/10 11:18:02;;;;;;;12.00;10.05;;;19.30;99.90;;;;;;5119761;27;20052;-76
2022/09/10 11:20:33;;;;;;;16.20;10.25;;;19.30;99.90;;;;;;5113188;27;20440;-77
2022/09/10 11:23:09;;;;;;;16.85;9.77;;;19.30;99.90;;;;;;5109122;27;20052;-75
2022/09/10 11:25:47;;;;;;;13.90;9.98;;;19.30;99.90;;;;;;5127861;27;20043;-76
2022/09/10 11:28:19;;;;;;;13.63;10.57;;;19.40;99.90;;;;;;5111104;28;20107;-76
2022/09/10 11:30:59;;;;;;;17.88;10.07;;;19.50;99.90;;;;;;5099815;28;20453;-75
2022/09/10 11:33:33;;;;;;;14.88;10.80;;;19.60;99.90;;;;;;5110477;27;20063;-76
2022/09/10 11:36:08;;;;;;;14.75;11.00;;;19.70;99.90;;;;;;5113014;28;20100;-76
2022/09/10 11:38:47;;;;;;;14.73;10.07;;;19.80;99.90;;;;;;5112717;27;20357;-76
2022/09/10 11:41:20;;;;;;;16.10;10.55;;;19.90;99.90;;;;;;5112595;27;20048;-75
2022/09/10 11:43:52;;;;;;;17.38;10.68;;;20.00;99.90;;;;;;5111930;28;20043;-76
2022/09/10 11:46:24;;;;;;;15.70;10.38;;;20.30;99.90;;;;;;5107197;28;20059;-76
2022/09/10 11:49:02;;;;;;;12.13;9.52;;;20.60;99.90;;;;;;5125968;27;20051;-77
2022/09/10 11:51:33;;;;;;;16.88;10.07;;;21.20;99.90;;;;;;5111200;28;20053;-76
2022/09/10 11:54:02;;;;;;;13.40;10.15;;;22.10;99.90;;;;;;5097372;28;20069;-74
2022/09/10 11:56:59;;;;;;;12.20;8.75;;;23.40;99.90;;;;;;5116859;27;20051;-77
2022/09/10 11:59:48;;;;;;;10.82;8.93;;;24.60;99.90;;;;;;5118528;27;20174;-78
2022/09/10 12:02:39;;;;;;;11.38;8.68;;;25.40;99.90;;;;;;5128333;27;20050;-77
2022/09/10 12:05:18;;;;;;;10.15;7.50;;;25.50;99.90;;;;;;5096286;28;20129;-78
2022/09/10 12:07:53;;;;;;;9.60;7.13;;;25.00;99.90;;;;;;5112403;28;20108;-80
2022/09/10 12:10:30;;;;;;;10.07;7.65;;;25.20;99.90;;;;;;5112180;28;20062;-79
2022/09/10 12:12:59;;;;;;;9.48;6.72;;;25.10;99.90;;;;;;5100329;28;20051;-75
2022/09/10 12:15:29;;;;;;;9.68;7.53;;;24.80;99.90;;;;;;5112788;28;20096;-77
2022/09/10 12:18:03;;;;;;;10.23;7.53;;;24.90;99.90;;;;;;5126307;27;20055;-79
2022/09/10 12:20:33;;;;;;;7.88;6.50;;;25.70;99.90;;;;;;5106702;28;20079;-78
2022/09/10 12:23:00;;;;;;;8.00;6.63;;;26.80;99.70;;;;;;5092771;28;20051;-79
2022/09/10 12:25:29;;;;;;;9.15;6.80;;;27.90;98.20;;;;;;5105694;28;20495;-78
2022/09/10 12:27:59;;;;;;;7.97;5.90;;;27.80;94.80;;;;;;5108427;28;20062;-77
2022/09/10 12:31:03;;;;;;;8.18;5.80;;;27.30;95.30;;;;;;5095433;28;20072;-78
2022/09/10 12:33:51;;;;;;;7.15;5.40;;;27.30;93.70;;;;;;5107005;28;20056;-77
2022/09/10 12:36:51;;;;;;;7.88;5.72;;;27.80;92.80;;;;;;5106929;28;20043;-77
2022/09/10 12:39:23;;;;;;;7.25;4.85;;;28.70;91.30;;;;;;5105917;28;20050;-79
2022/09/10 12:42:01;;;;;;;6.47;4.30;;;29.70;91.60;;;;;;5110289;28;20055;-77
2022/09/10 12:44:45;;;;;;;6.05;4.50;;;30.00;86.90;;;;;;5134971;28;20104;-78
2022/09/10 12:47:51;;;;;;;5.95;4.47;;;30.30;86.10;;;;;;5112235;28;20341;-78
2022/09/10 12:50:44;;;;;;;5.68;4.18;;;31.40;85.40;;;;;;5118167;28;20043;-77